sensor_id;sensor_type;location;lat;lon;timestamp;P1;durP1;ratioP1;P2;durP2;ratioP2
60370;SDS011;48550;40.588;49.684;2023-04-25T00:02:01;6.38;;;3.20;;
60370;SDS011;48550;40.588;49.684;2023-04-25T00:04:28;6.10;;;3.20;;
60370;SDS011;48550;40.588;49.684;2023-04-25T00:06:55;7.72;;;3.10;;
60370;SDS011;48550;40.588;49.684;2023-04-25T00:09:21;8.73;;;3.15;;
60370;SDS011;48550;40.588;49.684;2023-04-25T00:11:47;9.10;;;3.50;;
60370;SDS011;48550;40.588;49.684;2023-04-25T00:14:13;7.70;;;3.28;;
60370;SDS011;48550;40.588;49.684;2023-04-25T00:16:39;7.82;;;3.35;;
60370;SDS011;48550;40.588;49.684;2023-04-25T00:19:06;7.53;;;3.08;;
60370;SDS011;48550;40.588;49.684;2023-04-25T00:21:32;6.38;;;2.88;;
60370;SDS011;48550;40.588;49.684;2023-04-25T00:23:59;10.82;;;3.25;;
60370;SDS011;48550;40.588;49.684;2023-04-25T00:26:25;10.23;;;3.17;;
60370;SDS011;48550;40.588;49.684;2023-04-25T00:28:52;8.05;;;2.85;;
60370;SDS011;48550;40.588;49.684;2023-04-25T00:31:18;7.88;;;2.90;;
60370;SDS011;48550;40.588;49.684;2023-04-25T00:33:44;7.63;;;2.88;;
60370;SDS011;48550;40.588;49.684;2023-04-25T00:36:09;6.82;;;2.95;;
60370;SDS011;48550;40.588;49.684;2023-04-25T00:38:36;5.18;;;2.78;;
60370;SDS011;48550;40.588;49.684;2023-04-25T00:41:04;9.00;;;3.20;;
60370;SDS011;48550;40.588;49.684;2023-04-25T00:43:31;7.43;;;3.03;;
60370;SDS011;48550;40.588;49.684;2023-04-25T00:45:58;7.18;;;3.13;;
60370;SDS011;48550;40.588;49.684;2023-04-25T00:48:26;5.82;;;2.88;;
60370;SDS011;48550;40.588;49.684;2023-04-25T00:50:53;6.43;;;2.72;;
60370;SDS011;48550;40.588;49.684;2023-04-25T00:53:22;5.78;;;2.50;;
60370;SDS011;48550;40.588;49.684;2023-04-25T00:55:49;5.50;;;2.50;;
60370;SDS011;48550;40.588;49.684;2023-04-25T00:58:18;5.30;;;2.60;;
60370;SDS011;48550;40.588;49.684;2023-04-25T01:00:46;6.97;;;2.45;;
60370;SDS011;48550;40.588;49.684;2023-04-25T01:03:13;7.47;;;3.03;;
60370;SDS011;48550;40.588;49.684;2023-04-25T01:05:41;6.32;;;2.65;;
60370;SDS011;48550;40.588;49.684;2023-04-25T01:08:07;5.65;;;2.88;;
60370;SDS011;48550;40.588;49.684;2023-04-25T01:10:33;6.20;;;2.60;;
60370;SDS011;48550;40.588;49.684;2023-04-25T01:12:59;5.05;;;2.45;;
60370;SDS011;48550;40.588;49.684;2023-04-25T01:15:25;6.50;;;2.80;;
60370;SDS011;48550;40.588;49.684;2023-04-25T01:17:51;9.20;;;3.05;;
60370;SDS011;48550;40.588;49.684;2023-04-25T01:20:18;7.72;;;2.50;;
60370;SDS011;48550;40.588;49.684;2023-04-25T01:22:48;6.90;;;3.03;;
60370;SDS011;48550;40.588;49.684;2023-04-25T01:25:14;6.28;;;3.00;;
60370;SDS011;48550;40.588;49.684;2023-04-25T01:27:40;7.55;;;3.15;;
60370;SDS011;48550;40.588;49.684;2023-04-25T01:30:06;7.15;;;2.88;;
60370;SDS011;48550;40.588;49.684;2023-04-25T01:32:33;8.90;;;3.25;;
60370;SDS011;48550;40.588;49.684;2023-04-25T01:35:07;17.45;;;3.92;;
60370;SDS011;48550;40.588;49.684;2023-04-25T01:37:36;10.47;;;2.97;;
60370;SDS011;48550;40.588;49.684;2023-04-25T01:40:06;10.25;;;3.55;;
60370;SDS011;48550;40.588;49.684;2023-04-25T01:42:34;7.28;;;3.10;;
60370;SDS011;48550;40.588;49.684;2023-04-25T01:45:01;9.13;;;4.03;;
60370;SDS011;48550;40.588;49.684;2023-04-25T01:47:27;8.88;;;3.67;;
60370;SDS011;48550;40.588;49.684;2023-04-25T01:49:53;7.72;;;3.28;;
60370;SDS011;48550;40.588;49.684;2023-04-25T01:52:19;9.77;;;4.85;;
60370;SDS011;48550;40.588;49.684;2023-04-25T01:54:44;9.48;;;4.50;;
60370;SDS011;48550;40.588;49.684;2023-04-25T01:57:11;9.38;;;4.05;;
60370;SDS011;48550;40.588;49.684;2023-04-25T01:59:37;7.47;;;4.07;;
60370;SDS011;48550;40.588;49.684;2023-04-25T02:02:03;13.48;;;5.22;;
60370;SDS011;48550;40.588;49.684;2023-04-25T02:04:29;14.20;;;5.32;;
60370;SDS011;48550;40.588;49.684;2023-04-25T02:06:55;16.70;;;8.65;;
60370;SDS011;48550;40.588;49.684;2023-04-25T02:09:21;21.52;;;11.45;;
60370;SDS011;48550;40.588;49.684;2023-04-25T02:11:47;35.03;;;17.55;;
60370;SDS011;48550;40.588;49.684;2023-04-25T02:14:13;54.60;;;21.25;;
60370;SDS011;48550;40.588;49.684;2023-04-25T02:16:39;38.08;;;19.55;;
60370;SDS011;48550;40.588;49.684;2023-04-25T02:19:05;39.55;;;20.38;;
60370;SDS011;48550;40.588;49.684;2023-04-25T02:21:31;37.30;;;18.42;;
60370;SDS011;48550;40.588;49.684;2023-04-25T02:23:57;43.47;;;17.90;;
60370;SDS011;48550;40.588;49.684;2023-04-25T02:26:23;37.80;;;17.35;;
60370;SDS011;48550;40.588;49.684;2023-04-25T02:28:49;31.30;;;14.52;;
60370;SDS011;48550;40.588;49.684;2023-04-25T02:31:15;19.98;;;11.02;;
60370;SDS011;48550;40.588;49.684;2023-04-25T02:33:41;25.80;;;12.23;;
60370;SDS011;48550;40.588;49.684;2023-04-25T02:36:08;20.77;;;10.18;;
60370;SDS011;48550;40.588;49.684;2023-04-25T02:38:34;16.35;;;8.52;;
60370;SDS011;48550;40.588;49.684;2023-04-25T02:40:59;16.50;;;8.80;;
60370;SDS011;48550;40.588;49.684;2023-04-25T02:43:25;10.93;;;6.28;;
60370;SDS011;48550;40.588;49.684;2023-04-25T02:45:51;13.25;;;6.00;;
60370;SDS011;48550;40.588;49.684;2023-04-25T02:48:17;12.98;;;5.70;;
60370;SDS011;48550;40.588;49.684;2023-04-25T02:50:42;9.75;;;5.47;;
60370;SDS011;48550;40.588;49.684;2023-04-25T02:53:08;13.55;;;5.53;;
60370;SDS011;48550;40.588;49.684;2023-04-25T02:55:34;13.18;;;5.50;;
60370;SDS011;48550;40.588;49.684;2023-04-25T02:58:00;10.20;;;5.57;;
60370;SDS011;48550;40.588;49.684;2023-04-25T03:00:25;15.00;;;6.07;;
60370;SDS011;48550;40.588;49.684;2023-04-25T03:02:51;12.63;;;6.38;;
60370;SDS011;48550;40.588;49.684;2023-04-25T03:05:17;11.52;;;6.13;;
60370;SDS011;48550;40.588;49.684;2023-04-25T03:07:43;15.10;;;7.55;;
60370;SDS011;48550;40.588;49.684;2023-04-25T03:10:10;13.68;;;7.03;;
60370;SDS011;48550;40.588;49.684;2023-04-25T03:12:36;16.63;;;7.50;;
60370;SDS011;48550;40.588;49.684;2023-04-25T03:15:02;16.10;;;6.95;;
60370;SDS011;48550;40.588;49.684;2023-04-25T03:17:28;15.20;;;7.00;;
60370;SDS011;48550;40.588;49.684;2023-04-25T03:19:54;11.25;;;6.60;;
60370;SDS011;48550;40.588;49.684;2023-04-25T03:22:21;15.40;;;7.47;;
60370;SDS011;48550;40.588;49.684;2023-04-25T03:24:47;15.38;;;6.72;;
60370;SDS011;48550;40.588;49.684;2023-04-25T03:27:12;16.60;;;7.35;;
60370;SDS011;48550;40.588;49.684;2023-04-25T03:29:38;14.88;;;7.35;;
60370;SDS011;48550;40.588;49.684;2023-04-25T03:32:05;17.27;;;6.45;;
60370;SDS011;48550;40.588;49.684;2023-04-25T03:34:31;17.70;;;7.00;;
60370;SDS011;48550;40.588;49.684;2023-04-25T03:36:57;25.60;;;6.43;;
60370;SDS011;48550;40.588;49.684;2023-04-25T03:39:22;11.85;;;5.60;;
60370;SDS011;48550;40.588;49.684;2023-04-25T03:41:48;17.73;;;6.57;;
60370;SDS011;48550;40.588;49.684;2023-04-25T03:44:14;11.25;;;5.68;;
60370;SDS011;48550;40.588;49.684;2023-04-25T03:46:40;13.48;;;5.82;;
60370;SDS011;48550;40.588;49.684;2023-04-25T03:49:05;15.32;;;5.30;;
60370;SDS011;48550;40.588;49.684;2023-04-25T03:51:31;13.60;;;6.03;;
60370;SDS011;48550;40.588;49.684;2023-04-25T03:53:57;10.73;;;5.70;;
60370;SDS011;48550;40.588;49.684;2023-04-25T03:56:23;12.82;;;5.93;;
60370;SDS011;48550;40.588;49.684;2023-04-25T03:58:49;9.20;;;5.50;;
60370;SDS011;48550;40.588;49.684;2023-04-25T04:01:15;9.30;;;5.70;;
60370;SDS011;48550;40.588;49.684;2023-04-25T04:03:41;10.43;;;5.18;;
60370;SDS011;48550;40.588;49.684;2023-04-25T04:06:07;10.82;;;5.00;;
60370;SDS011;48550;40.588;49.684;2023-04-25T04:08:33;9.88;;;4.57;;
60370;SDS011;48550;40.588;49.684;2023-04-25T04:10:59;9.55;;;4.30;;
60370;SDS011;48550;40.588;49.684;2023-04-25T04:13:26;8.57;;;4.72;;
60370;SDS011;48550;40.588;49.684;2023-04-25T04:15:52;10.55;;;3.83;;
60370;SDS011;48550;40.588;49.684;2023-04-25T04:18:18;8.55;;;4.07;;
60370;SDS011;48550;40.588;49.684;2023-04-25T04:20:44;15.73;;;4.15;;
60370;SDS011;48550;40.588;49.684;2023-04-25T04:23:09;10.27;;;3.85;;
60370;SDS011;48550;40.588;49.684;2023-04-25T04:25:35;9.48;;;4.28;;
60370;SDS011;48550;40.588;49.684;2023-04-25T04:28:01;12.70;;;3.90;;
60370;SDS011;48550;40.588;49.684;2023-04-25T04:30:28;12.85;;;4.80;;
60370;SDS011;48550;40.588;49.684;2023-04-25T04:32:56;10.07;;;4.53;;
60370;SDS011;48550;40.588;49.684;2023-04-25T04:35:23;11.95;;;4.38;;
60370;SDS011;48550;40.588;49.684;2023-04-25T04:37:49;10.35;;;4.82;;
60370;SDS011;48550;40.588;49.684;2023-04-25T04:40:15;12.93;;;5.35;;
60370;SDS011;48550;40.588;49.684;2023-04-25T04:42:43;14.25;;;4.65;;
60370;SDS011;48550;40.588;49.684;2023-04-25T04:45:13;12.02;;;4.40;;
60370;SDS011;48550;40.588;49.684;2023-04-25T04:47:39;11.57;;;5.03;;
60370;SDS011;48550;40.588;49.684;2023-04-25T04:50:06;11.40;;;4.40;;
60370;SDS011;48550;40.588;49.684;2023-04-25T04:52:37;8.15;;;4.00;;
60370;SDS011;48550;40.588;49.684;2023-04-25T04:55:03;9.70;;;4.35;;
60370;SDS011;48550;40.588;49.684;2023-04-25T04:57:30;12.48;;;4.72;;
60370;SDS011;48550;40.588;49.684;2023-04-25T04:59:58;7.55;;;4.00;;
60370;SDS011;48550;40.588;49.684;2023-04-25T05:02:24;10.00;;;4.45;;
60370;SDS011;48550;40.588;49.684;2023-04-25T05:04:51;10.77;;;4.97;;
60370;SDS011;48550;40.588;49.684;2023-04-25T05:07:17;12.20;;;4.40;;
60370;SDS011;48550;40.588;49.684;2023-04-25T05:09:43;9.65;;;4.05;;
60370;SDS011;48550;40.588;49.684;2023-04-25T05:12:09;12.40;;;5.03;;
60370;SDS011;48550;40.588;49.684;2023-04-25T05:14:35;14.25;;;5.30;;
60370;SDS011;48550;40.588;49.684;2023-04-25T05:17:01;10.52;;;4.72;;
60370;SDS011;48550;40.588;49.684;2023-04-25T05:19:30;12.48;;;4.80;;
60370;SDS011;48550;40.588;49.684;2023-04-25T05:21:55;10.75;;;4.97;;
60370;SDS011;48550;40.588;49.684;2023-04-25T05:24:21;10.98;;;5.45;;
60370;SDS011;48550;40.588;49.684;2023-04-25T05:26:47;10.18;;;4.93;;
60370;SDS011;48550;40.588;49.684;2023-04-25T05:29:12;13.80;;;4.90;;
60370;SDS011;48550;40.588;49.684;2023-04-25T05:31:38;11.60;;;5.43;;
60370;SDS011;48550;40.588;49.684;2023-04-25T05:34:04;9.30;;;4.60;;
60370;SDS011;48550;40.588;49.684;2023-04-25T05:36:29;11.10;;;4.05;;
60370;SDS011;48550;40.588;49.684;2023-04-25T05:38:57;11.55;;;4.80;;
60370;SDS011;48550;40.588;49.684;2023-04-25T05:41:23;11.80;;;4.90;;
60370;SDS011;48550;40.588;49.684;2023-04-25T05:43:49;14.95;;;5.15;;
60370;SDS011;48550;40.588;49.684;2023-04-25T05:46:15;12.77;;;4.13;;
60370;SDS011;48550;40.588;49.684;2023-04-25T05:48:43;10.70;;;4.60;;
60370;SDS011;48550;40.588;49.684;2023-04-25T05:51:09;8.10;;;4.10;;
60370;SDS011;48550;40.588;49.684;2023-04-25T05:53:35;10.20;;;4.22;;
60370;SDS011;48550;40.588;49.684;2023-04-25T05:56:01;11.38;;;4.10;;
60370;SDS011;48550;40.588;49.684;2023-04-25T05:58:27;10.95;;;3.97;;
60370;SDS011;48550;40.588;49.684;2023-04-25T06:00:52;9.80;;;4.68;;
60370;SDS011;48550;40.588;49.684;2023-04-25T06:03:18;11.27;;;4.20;;
60370;SDS011;48550;40.588;49.684;2023-04-25T06:05:44;10.90;;;4.13;;
60370;SDS011;48550;40.588;49.684;2023-04-25T06:08:09;8.60;;;4.05;;
60370;SDS011;48550;40.588;49.684;2023-04-25T06:10:36;13.38;;;5.05;;
60370;SDS011;48550;40.588;49.684;2023-04-25T06:13:02;7.82;;;3.92;;
60370;SDS011;48550;40.588;49.684;2023-04-25T06:15:28;10.00;;;4.03;;
60370;SDS011;48550;40.588;49.684;2023-04-25T06:17:53;12.10;;;4.30;;
60370;SDS011;48550;40.588;49.684;2023-04-25T06:20:19;10.88;;;4.25;;
60370;SDS011;48550;40.588;49.684;2023-04-25T06:22:48;7.97;;;3.85;;
60370;SDS011;48550;40.588;49.684;2023-04-25T06:25:15;7.70;;;3.70;;
60370;SDS011;48550;40.588;49.684;2023-04-25T06:27:41;9.10;;;4.05;;
60370;SDS011;48550;40.588;49.684;2023-04-25T06:30:07;8.23;;;3.65;;
60370;SDS011;48550;40.588;49.684;2023-04-25T06:32:33;7.15;;;3.70;;
60370;SDS011;48550;40.588;49.684;2023-04-25T06:34:59;9.45;;;4.10;;
60370;SDS011;48550;40.588;49.684;2023-04-25T06:37:25;7.95;;;4.10;;
60370;SDS011;48550;40.588;49.684;2023-04-25T06:39:51;12.77;;;4.28;;
60370;SDS011;48550;40.588;49.684;2023-04-25T06:42:17;11.38;;;4.30;;
60370;SDS011;48550;40.588;49.684;2023-04-25T06:44:43;11.32;;;4.32;;
60370;SDS011;48550;40.588;49.684;2023-04-25T06:47:09;10.88;;;4.05;;
60370;SDS011;48550;40.588;49.684;2023-04-25T06:49:34;13.60;;;4.18;;
60370;SDS011;48550;40.588;49.684;2023-04-25T06:52:00;11.07;;;3.70;;
60370;SDS011;48550;40.588;49.684;2023-04-25T06:54:26;8.80;;;3.75;;
60370;SDS011;48550;40.588;49.684;2023-04-25T06:56:54;9.18;;;4.40;;
60370;SDS011;48550;40.588;49.684;2023-04-25T06:59:20;11.35;;;4.30;;
60370;SDS011;48550;40.588;49.684;2023-04-25T07:01:46;9.93;;;3.97;;
60370;SDS011;48550;40.588;49.684;2023-04-25T07:04:12;8.63;;;4.07;;
60370;SDS011;48550;40.588;49.684;2023-04-25T07:06:37;7.32;;;4.18;;
60370;SDS011;48550;40.588;49.684;2023-04-25T07:09:07;11.55;;;4.50;;
60370;SDS011;48550;40.588;49.684;2023-04-25T07:11:35;12.20;;;4.50;;
60370;SDS011;48550;40.588;49.684;2023-04-25T07:14:01;9.05;;;4.57;;
60370;SDS011;48550;40.588;49.684;2023-04-25T07:16:27;12.50;;;4.15;;
60370;SDS011;48550;40.588;49.684;2023-04-25T07:18:52;10.18;;;4.35;;
60370;SDS011;48550;40.588;49.684;2023-04-25T07:21:18;13.50;;;4.35;;
60370;SDS011;48550;40.588;49.684;2023-04-25T07:23:44;16.92;;;4.43;;
60370;SDS011;48550;40.588;49.684;2023-04-25T07:26:10;8.27;;;3.88;;
60370;SDS011;48550;40.588;49.684;2023-04-25T07:28:35;8.90;;;4.60;;
60370;SDS011;48550;40.588;49.684;2023-04-25T07:31:01;7.97;;;4.10;;
60370;SDS011;48550;40.588;49.684;2023-04-25T07:33:27;8.73;;;4.30;;
60370;SDS011;48550;40.588;49.684;2023-04-25T07:35:53;15.18;;;5.10;;
60370;SDS011;48550;40.588;49.684;2023-04-25T07:38:20;9.48;;;4.43;;
60370;SDS011;48550;40.588;49.684;2023-04-25T07:40:49;9.05;;;4.50;;
60370;SDS011;48550;40.588;49.684;2023-04-25T07:43:15;8.35;;;4.63;;
60370;SDS011;48550;40.588;49.684;2023-04-25T07:45:42;12.00;;;4.88;;
60370;SDS011;48550;40.588;49.684;2023-04-25T07:48:08;11.20;;;4.70;;
60370;SDS011;48550;40.588;49.684;2023-04-25T07:50:35;10.50;;;4.70;;
60370;SDS011;48550;40.588;49.684;2023-04-25T07:53:00;35.03;;;21.25;;
60370;SDS011;48550;40.588;49.684;2023-04-25T07:55:26;23.95;;;13.13;;
60370;SDS011;48550;40.588;49.684;2023-04-25T07:57:52;45.85;;;24.15;;
60370;SDS011;48550;40.588;49.684;2023-04-25T08:00:17;23.08;;;14.40;;
60370;SDS011;48550;40.588;49.684;2023-04-25T08:02:43;9.90;;;5.95;;
60370;SDS011;48550;40.588;49.684;2023-04-25T08:05:09;23.73;;;14.07;;
60370;SDS011;48550;40.588;49.684;2023-04-25T08:07:39;8.90;;;5.32;;
60370;SDS011;48550;40.588;49.684;2023-04-25T08:10:06;13.93;;;8.88;;
60370;SDS011;48550;40.588;49.684;2023-04-25T08:12:33;13.18;;;5.53;;
60370;SDS011;48550;40.588;49.684;2023-04-25T08:14:59;11.20;;;4.70;;
60370;SDS011;48550;40.588;49.684;2023-04-25T08:17:24;10.60;;;4.78;;
60370;SDS011;48550;40.588;49.684;2023-04-25T08:19:50;14.10;;;5.25;;
60370;SDS011;48550;40.588;49.684;2023-04-25T08:22:16;9.98;;;4.90;;
60370;SDS011;48550;40.588;49.684;2023-04-25T08:24:41;11.88;;;4.50;;
60370;SDS011;48550;40.588;49.684;2023-04-25T08:27:07;9.18;;;4.82;;
60370;SDS011;48550;40.588;49.684;2023-04-25T08:29:33;11.25;;;4.90;;
60370;SDS011;48550;40.588;49.684;2023-04-25T08:31:59;9.88;;;5.20;;
60370;SDS011;48550;40.588;49.684;2023-04-25T08:34:26;13.07;;;5.40;;
60370;SDS011;48550;40.588;49.684;2023-04-25T08:36:52;12.52;;;5.35;;
60370;SDS011;48550;40.588;49.684;2023-04-25T08:39:17;13.82;;;4.32;;
60370;SDS011;48550;40.588;49.684;2023-04-25T08:41:43;12.73;;;4.05;;
60370;SDS011;48550;40.588;49.684;2023-04-25T08:44:10;15.65;;;4.90;;
60370;SDS011;48550;40.588;49.684;2023-04-25T08:46:40;9.57;;;5.32;;
60370;SDS011;48550;40.588;49.684;2023-04-25T08:49:06;8.85;;;4.75;;
60370;SDS011;48550;40.588;49.684;2023-04-25T08:51:34;10.57;;;4.82;;
60370;SDS011;48550;40.588;49.684;2023-04-25T08:54:11;11.68;;;4.88;;
60370;SDS011;48550;40.588;49.684;2023-04-25T08:56:41;16.83;;;4.88;;
60370;SDS011;48550;40.588;49.684;2023-04-25T08:59:10;10.07;;;4.20;;
60370;SDS011;48550;40.588;49.684;2023-04-25T09:01:37;10.43;;;4.60;;
60370;SDS011;48550;40.588;49.684;2023-04-25T09:04:03;12.23;;;4.32;;
60370;SDS011;48550;40.588;49.684;2023-04-25T09:06:29;8.60;;;4.28;;
60370;SDS011;48550;40.588;49.684;2023-04-25T09:09:01;9.13;;;3.97;;
60370;SDS011;48550;40.588;49.684;2023-04-25T09:11:31;9.40;;;4.45;;
60370;SDS011;48550;40.588;49.684;2023-04-25T09:17:02;11.10;;;4.05;;
60370;SDS011;48550;40.588;49.684;2023-04-25T09:19:30;10.18;;;4.38;;
60370;SDS011;48550;40.588;49.684;2023-04-25T09:21:58;12.57;;;4.63;;
60370;SDS011;48550;40.588;49.684;2023-04-25T09:24:42;12.82;;;6.05;;
60370;SDS011;48550;40.588;49.684;2023-04-25T09:27:11;14.30;;;4.88;;
60370;SDS011;48550;40.588;49.684;2023-04-25T09:29:39;9.48;;;5.07;;
60370;SDS011;48550;40.588;49.684;2023-04-25T09:32:19;11.77;;;5.97;;
60370;SDS011;48550;40.588;49.684;2023-04-25T09:34:51;12.15;;;5.78;;
60370;SDS011;48550;40.588;49.684;2023-04-25T09:37:21;12.75;;;6.00;;
60370;SDS011;48550;40.588;49.684;2023-04-25T09:39:49;15.18;;;6.57;;
60370;SDS011;48550;40.588;49.684;2023-04-25T09:42:16;15.68;;;6.53;;
60370;SDS011;48550;40.588;49.684;2023-04-25T09:44:45;15.00;;;5.95;;
60370;SDS011;48550;40.588;49.684;2023-04-25T09:47:12;12.55;;;5.63;;
60370;SDS011;48550;40.588;49.684;2023-04-25T09:49:40;9.98;;;5.15;;
60370;SDS011;48550;40.588;49.684;2023-04-25T09:52:07;9.98;;;5.75;;
60370;SDS011;48550;40.588;49.684;2023-04-25T09:54:34;11.40;;;5.55;;
60370;SDS011;48550;40.588;49.684;2023-04-25T09:57:06;12.20;;;6.07;;
60370;SDS011;48550;40.588;49.684;2023-04-25T09:59:38;13.20;;;6.13;;
60370;SDS011;48550;40.588;49.684;2023-04-25T10:02:09;14.27;;;5.72;;
60370;SDS011;48550;40.588;49.684;2023-04-25T10:04:36;15.65;;;5.47;;
60370;SDS011;48550;40.588;49.684;2023-04-25T10:07:04;12.40;;;6.30;;
60370;SDS011;48550;40.588;49.684;2023-04-25T10:09:31;17.67;;;6.15;;
60370;SDS011;48550;40.588;49.684;2023-04-25T10:12:00;10.25;;;5.80;;
60370;SDS011;48550;40.588;49.684;2023-04-25T10:14:29;18.05;;;6.80;;
60370;SDS011;48550;40.588;49.684;2023-04-25T10:16:57;15.38;;;6.47;;
60370;SDS011;48550;40.588;49.684;2023-04-25T10:19:24;13.27;;;6.78;;
60370;SDS011;48550;40.588;49.684;2023-04-25T10:21:55;20.42;;;7.53;;
60370;SDS011;48550;40.588;49.684;2023-04-25T10:24:28;16.55;;;7.30;;
60370;SDS011;48550;40.588;49.684;2023-04-25T10:26:54;14.38;;;6.70;;
60370;SDS011;48550;40.588;49.684;2023-04-25T10:29:22;13.30;;;6.22;;
60370;SDS011;48550;40.588;49.684;2023-04-25T10:31:49;14.20;;;5.97;;
60370;SDS011;48550;40.588;49.684;2023-04-25T10:34:15;15.07;;;6.05;;
60370;SDS011;48550;40.588;49.684;2023-04-25T10:36:42;12.23;;;5.63;;
60370;SDS011;48550;40.588;49.684;2023-04-25T10:39:11;12.90;;;5.55;;
60370;SDS011;48550;40.588;49.684;2023-04-25T10:41:47;12.02;;;5.68;;
60370;SDS011;48550;40.588;49.684;2023-04-25T10:44:17;12.18;;;5.85;;
60370;SDS011;48550;40.588;49.684;2023-04-25T10:46:44;12.35;;;5.47;;
60370;SDS011;48550;40.588;49.684;2023-04-25T10:49:11;14.57;;;5.93;;
60370;SDS011;48550;40.588;49.684;2023-04-25T10:52:24;12.07;;;5.78;;
60370;SDS011;48550;40.588;49.684;2023-04-25T10:54:52;14.55;;;6.45;;
60370;SDS011;48550;40.588;49.684;2023-04-25T10:57:31;13.18;;;5.70;;
60370;SDS011;48550;40.588;49.684;2023-04-25T10:59:58;13.27;;;6.28;;
60370;SDS011;48550;40.588;49.684;2023-04-25T11:02:28;15.50;;;6.30;;
60370;SDS011;48550;40.588;49.684;2023-04-25T11:04:54;15.18;;;6.35;;
60370;SDS011;48550;40.588;49.684;2023-04-25T11:07:26;14.35;;;6.65;;
60370;SDS011;48550;40.588;49.684;2023-04-25T11:10:03;17.38;;;6.93;;
60370;SDS011;48550;40.588;49.684;2023-04-25T11:12:30;18.88;;;6.80;;
60370;SDS011;48550;40.588;49.684;2023-04-25T11:15:06;13.05;;;6.57;;
60370;SDS011;48550;40.588;49.684;2023-04-25T11:17:33;12.52;;;7.22;;
60370;SDS011;48550;40.588;49.684;2023-04-25T11:19:59;13.38;;;5.68;;
60370;SDS011;48550;40.588;49.684;2023-04-25T11:22:26;9.07;;;4.05;;
60370;SDS011;48550;40.588;49.684;2023-04-25T11:24:53;14.43;;;4.18;;
60370;SDS011;48550;40.588;49.684;2023-04-25T11:27:19;15.65;;;3.95;;
60370;SDS011;48550;40.588;49.684;2023-04-25T11:29:46;7.88;;;3.88;;
60370;SDS011;48550;40.588;49.684;2023-04-25T11:32:14;9.65;;;3.60;;
60370;SDS011;48550;40.588;49.684;2023-04-25T11:34:42;10.50;;;3.15;;
60370;SDS011;48550;40.588;49.684;2023-04-25T11:37:10;12.60;;;4.13;;
60370;SDS011;48550;40.588;49.684;2023-04-25T11:39:37;9.07;;;3.90;;
60370;SDS011;48550;40.588;49.684;2023-04-25T11:42:04;12.15;;;4.47;;
60370;SDS011;48550;40.588;49.684;2023-04-25T11:44:30;12.55;;;4.15;;
60370;SDS011;48550;40.588;49.684;2023-04-25T11:46:56;12.95;;;3.97;;
60370;SDS011;48550;40.588;49.684;2023-04-25T11:49:22;14.32;;;3.88;;
60370;SDS011;48550;40.588;49.684;2023-04-25T11:51:49;10.77;;;4.20;;
60370;SDS011;48550;40.588;49.684;2023-04-25T11:54:15;9.02;;;4.38;;
60370;SDS011;48550;40.588;49.684;2023-04-25T11:56:42;15.02;;;3.90;;
60370;SDS011;48550;40.588;49.684;2023-04-25T11:59:08;14.10;;;4.35;;
60370;SDS011;48550;40.588;49.684;2023-04-25T12:01:38;18.20;;;4.18;;
60370;SDS011;48550;40.588;49.684;2023-04-25T12:06:39;8.02;;;3.50;;
60370;SDS011;48550;40.588;49.684;2023-04-25T12:09:07;12.80;;;3.70;;
60370;SDS011;48550;40.588;49.684;2023-04-25T12:14:22;17.30;;;4.53;;
60370;SDS011;48550;40.588;49.684;2023-04-25T12:16:50;14.85;;;4.38;;
60370;SDS011;48550;40.588;49.684;2023-04-25T12:19:17;16.35;;;4.30;;
60370;SDS011;48550;40.588;49.684;2023-04-25T12:21:44;15.02;;;4.00;;
60370;SDS011;48550;40.588;49.684;2023-04-25T12:24:17;8.23;;;3.00;;
60370;SDS011;48550;40.588;49.684;2023-04-25T12:26:49;9.70;;;3.67;;
60370;SDS011;48550;40.588;49.684;2023-04-25T12:29:21;11.32;;;3.80;;
60370;SDS011;48550;40.588;49.684;2023-04-25T12:31:49;16.10;;;4.43;;
60370;SDS011;48550;40.588;49.684;2023-04-25T12:34:16;10.65;;;3.70;;
60370;SDS011;48550;40.588;49.684;2023-04-25T12:36:43;14.80;;;3.88;;
60370;SDS011;48550;40.588;49.684;2023-04-25T12:39:13;12.88;;;3.55;;
60370;SDS011;48550;40.588;49.684;2023-04-25T12:41:49;15.10;;;4.32;;
60370;SDS011;48550;40.588;49.684;2023-04-25T12:44:17;12.60;;;4.20;;
60370;SDS011;48550;40.588;49.684;2023-04-25T12:46:43;12.60;;;3.53;;
60370;SDS011;48550;40.588;49.684;2023-04-25T12:49:09;12.70;;;4.20;;
60370;SDS011;48550;40.588;49.684;2023-04-25T12:51:35;9.98;;;4.07;;
60370;SDS011;48550;40.588;49.684;2023-04-25T12:54:01;12.65;;;4.05;;
60370;SDS011;48550;40.588;49.684;2023-04-25T12:56:29;14.05;;;4.57;;
60370;SDS011;48550;40.588;49.684;2023-04-25T12:58:55;10.55;;;4.03;;
60370;SDS011;48550;40.588;49.684;2023-04-25T13:01:21;14.77;;;4.68;;
60370;SDS011;48550;40.588;49.684;2023-04-25T13:03:48;12.73;;;4.55;;
60370;SDS011;48550;40.588;49.684;2023-04-25T13:06:17;12.15;;;4.15;;
60370;SDS011;48550;40.588;49.684;2023-04-25T13:08:44;11.05;;;4.68;;
60370;SDS011;48550;40.588;49.684;2023-04-25T13:11:09;15.25;;;5.32;;
60370;SDS011;48550;40.588;49.684;2023-04-25T13:13:36;10.65;;;4.68;;
60370;SDS011;48550;40.588;49.684;2023-04-25T13:16:02;12.00;;;4.80;;
60370;SDS011;48550;40.588;49.684;2023-04-25T13:18:29;16.23;;;5.72;;
60370;SDS011;48550;40.588;49.684;2023-04-25T13:20:56;12.05;;;4.97;;
60370;SDS011;48550;40.588;49.684;2023-04-25T13:23:22;12.35;;;5.13;;
60370;SDS011;48550;40.588;49.684;2023-04-25T13:25:50;12.05;;;4.95;;
60370;SDS011;48550;40.588;49.684;2023-04-25T13:28:15;16.35;;;5.05;;
60370;SDS011;48550;40.588;49.684;2023-04-25T13:30:41;15.15;;;5.43;;
60370;SDS011;48550;40.588;49.684;2023-04-25T13:33:07;10.30;;;4.90;;
60370;SDS011;48550;40.588;49.684;2023-04-25T13:35:34;12.70;;;5.00;;
60370;SDS011;48550;40.588;49.684;2023-04-25T13:38:01;13.82;;;5.22;;
60370;SDS011;48550;40.588;49.684;2023-04-25T13:40:27;13.88;;;4.90;;
60370;SDS011;48550;40.588;49.684;2023-04-25T13:42:53;12.20;;;5.10;;
60370;SDS011;48550;40.588;49.684;2023-04-25T13:45:19;14.50;;;5.22;;
60370;SDS011;48550;40.588;49.684;2023-04-25T13:47:45;16.40;;;5.88;;
60370;SDS011;48550;40.588;49.684;2023-04-25T13:50:11;15.85;;;5.72;;
60370;SDS011;48550;40.588;49.684;2023-04-25T13:52:39;29.15;;;14.57;;
60370;SDS011;48550;40.588;49.684;2023-04-25T13:55:05;31.73;;;17.77;;
60370;SDS011;48550;40.588;49.684;2023-04-25T13:57:32;22.90;;;8.45;;
60370;SDS011;48550;40.588;49.684;2023-04-25T13:59:59;40.85;;;23.98;;
60370;SDS011;48550;40.588;49.684;2023-04-25T14:02:29;13.57;;;4.97;;
60370;SDS011;48550;40.588;49.684;2023-04-25T14:04:55;31.10;;;18.85;;
60370;SDS011;48550;40.588;49.684;2023-04-25T14:07:21;22.60;;;11.82;;
60370;SDS011;48550;40.588;49.684;2023-04-25T14:09:47;16.92;;;8.10;;
60370;SDS011;48550;40.588;49.684;2023-04-25T14:12:13;47.67;;;28.05;;
60370;SDS011;48550;40.588;49.684;2023-04-25T14:14:38;46.83;;;25.35;;
60370;SDS011;48550;40.588;49.684;2023-04-25T14:17:04;33.90;;;21.25;;
60370;SDS011;48550;40.588;49.684;2023-04-25T14:19:31;27.05;;;15.25;;
60370;SDS011;48550;40.588;49.684;2023-04-25T14:21:57;18.65;;;6.55;;
60370;SDS011;48550;40.588;49.684;2023-04-25T14:24:23;23.48;;;14.57;;
60370;SDS011;48550;40.588;49.684;2023-04-25T14:26:48;18.83;;;10.30;;
60370;SDS011;48550;40.588;49.684;2023-04-25T14:29:14;14.07;;;5.53;;
60370;SDS011;48550;40.588;49.684;2023-04-25T14:31:40;15.95;;;6.43;;